Latest Weather Observations for Canberra

IDN60901

Issued at 4:02 pm EST Monday 25 July 2016 (issued every 10 minutes, with the page automatically refreshed every 10 minutes)

About weather observations | Map of Canberra area stations | Latest observations for Canberra area | Other Formats
Station Details ID: 070351 Name: CANBERRA AIRPORT Lat: -35.31 Lon: 149.20 Height: 577.05 m
Data from the previous 72 hours. | See also: Recent months at Canberra
Date/Time
EST
Temp
°C
App
Temp
°C
Dew
Point
°C
Rel
Hum
%
Delta-T
°C
Wind Press
QNH
hPa
Press
MSL
hPa
Rain since
9am
mm
Dir  Spd
km/h
Gust
km/h
Spd
kts
Gust
kts
25/03:30pm 7.6 0.3 4.4 80 1.4 NW 32 39 17 21 1011.7 1012.8 0.0
25/03:00pm 8.6 1.8 3.0 68 2.5 NW 28 35 15 19 1011.9 1013.0 0.0
25/02:30pm 9.9 3.4 2.7 61 3.2 NNW 26 37 14 20 1011.9 1013.0 0.0
25/02:00pm 8.4 2.4 3.5 71 2.2 NNW 24 35 13 19 1011.9 1013.0 0.0
25/01:30pm 7.6 0.5 3.6 76 1.8 NNW 30 39 16 21 1012.1 1013.2 0.0
25/01:00pm 9.2 1.2 3.6 68 2.5 NW 35 43 19 23 1011.9 1013.0 0.0
25/12:30pm 9.5 1.1 3.9 68 2.5 NW 37 50 20 27 1012.0 1013.1 0.0
25/12:00pm 8.3 0.3 3.9 74 2.0 NNW 35 43 19 23 1012.3 1013.5 0.0
25/11:30am 8.6 1.1 4.4 75 1.9 NW 33 43 18 23 1012.3 1013.5 0.0
25/11:00am 8.5 1.2 4.3 75 1.9 NW 32 37 17 20 1012.2 1013.4 0.0
25/10:30am 7.3 1.7 3.4 76 1.7 NNW 22 30 12 16 1012.2 1013.4 0.0
25/10:00am 7.4 1.5 3.8 78 1.6 NNW 24 35 13 19 1012.1 1013.2 0.0
25/09:30am 6.4 -0.3 3.6 82 1.2 NW 28 35 15 19 1011.6 1012.7 0.0
25/09:00am 6.6 -0.5 3.8 82 1.2 NW 30 37 16 20 1011.3 1012.4 8.4
25/08:30am 6.0 -1.1 3.7 85 1.0 NW 30 39 16 21 1011.0 1012.1 8.4
25/08:00am 5.0 -2.1 3.8 92 0.5 NW 30 35 16 19 1010.7 1011.7 8.4
25/07:30am 4.6 -1.3 3.7 94 0.4 NNW 24 33 13 18 1010.5 1011.6 8.4
25/07:00am 4.5 -2.3 3.3 92 0.5 NNW 28 33 15 18 1009.7 1010.8 8.4
25/06:30am 4.6 -2.5 3.6 93 0.4 NW 30 39 16 21 1009.6 1010.7 8.4
25/06:00am 4.6 -1.7 3.7 94 0.4 NW 26 35 14 19 1009.4 1010.5 8.4
25/05:30am 4.5 -1.5 3.5 93 0.4 NW 24 30 13 16 1009.2 1010.2 8.2
25/05:00am 4.5 -1.1 3.3 92 0.5 NW 22 30 12 16 1009.1 1010.1 8.2
25/04:30am 4.6 -1.4 3.1 90 0.6 NNW 24 33 13 18 1008.9 1009.9 8.2
25/04:00am 4.6 -0.2 2.8 88 0.8 NNW 17 26 9 14 1008.8 1009.8 8.2
25/03:30am 4.6 0.1 2.3 85 1.0 NNW 15 24 8 13 1008.9 1009.9 8.2
25/03:00am 4.2 -1.7 1.7 84 1.0 NW 22 32 12 17 1009.0 1010.0 8.2
25/02:30am 4.6 -0.3 2.1 84 1.0 NNW 17 22 9 12 1009.3 1010.4 8.2
25/02:00am 4.3 -0.9 2.7 89 0.7 NNW 19 22 10 12 1009.2 1010.2 8.2
25/01:30am 4.7 0.0 3.0 89 0.7 NNW 17 20 9 11 1008.8 1009.8 8.2
25/01:00am 4.8 0.1 3.0 88 0.8 NNW 17 26 9 14 1008.8 1009.8 8.2
25/12:37am 4.7 -0.5 3.4 91 0.6 NW 20 33 11 18 1008.9 1009.9 8.2
25/12:30am 4.9 -1.1 3.4 90 0.6 NW 24 32 13 17 1008.9 1009.9 8.2
25/12:09am 5.1 -1.2 3.9 92 0.5 NW 26 33 14 18 1009.0 1010.0 8.0
25/12:00am 5.2 -0.7 4.0 92 0.5 NW 24 35 13 19 1009.0 1010.0 7.8
 
Date/Time
EST
Temp
°C
App
Temp
°C
Dew
Point
°C
Rel
Hum
%
Delta-T
°C
Wind Press
QNH
hPa
Press
MSL
hPa
Rain since
9am
mm
Dir  Spd
km/h
Gust
km/h
Spd
kts
Gust
kts
24/11:47pm 5.3 -0.1 4.3 93 0.4 NW 22 30 12 16 1009.3 1010.4 7.0
24/11:30pm 5.4 -1.2 4.4 93 0.4 NNW 28 41 15 22 1009.3 1010.4 6.8
24/11:26pm 5.4 -0.8 4.4 93 0.4 NNW 26 41 14 22 1009.4 1010.5 6.8
24/11:00pm 5.2 1.5 4.5 95 0.3 NW 13 19 7 10 1009.6 1010.7 6.8
24/10:30pm 4.7 0.8 3.2 90 0.6 N 13 17 7 9 1009.9 1011.0 6.2
24/10:03pm 4.2 0.6 3.0 92 0.5 N 11 15 6 8 1010.2 1011.3 6.2
24/10:00pm 4.2 0.2 2.9 91 0.5 N 13 17 7 9 1010.2 1011.3 6.2
24/09:46pm 4.1 -0.3 2.9 92 0.5 NNW 15 19 8 10 1010.5 1011.6 6.2
24/09:35pm 4.0 -0.7 3.0 93 0.4 NW 17 22 9 12 1010.5 1011.6 6.2
24/09:30pm 4.1 -1.0 2.9 92 0.5 WNW 19 28 10 15 1010.7 1011.7 6.2
24/09:15pm 4.3 -0.5 2.8 90 0.6 NW 17 26 9 14 1010.7 1011.7 5.6
24/09:12pm 4.3 -0.4 3.0 91 0.6 NNW 17 26 9 14 1010.5 1011.6 5.2
24/09:00pm 3.9 -0.9 2.7 92 0.5 N 17 22 9 12 1010.7 1011.7 4.4
24/08:52pm 3.8 -1.1 2.3 90 0.6 N 17 20 9 11 1010.7 1011.7 4.4
24/08:37pm 3.4 -1.5 2.2 92 0.5 NNW 17 24 9 13 1011.0 1012.1 4.4
24/08:30pm 3.4 -2.8 2.4 93 0.4 NW 24 35 13 19 1011.3 1012.4 4.2
24/08:18pm 3.5 -3.4 2.3 92 0.5 W 28 48 15 26 1012.0 1013.1 3.4
24/08:08pm 4.6 0.0 3.7 94 0.4 WNW 17 24 9 13 1011.3 1012.4 2.2
24/08:00pm 4.6 0.7 3.4 92 0.5 NW 13 22 7 12 1010.9 1012.0 1.8
24/07:30pm 4.7 -0.4 3.2 90 0.6 NNW 19 24 10 13 1010.8 1011.9 0.8
24/07:14pm 4.7 -0.5 3.4 91 0.6 NNW 20 28 11 15 1010.9 1012.0 0.4
24/07:00pm 5.0 0.2 2.7 85 1.0 NNW 17 22 9 12 1010.8 1011.9 0.0
24/06:30pm 4.9 -0.4 2.1 82 1.2 NNW 19 26 10 14 1010.7 1011.7 0.0
24/06:00pm 5.8 -0.2 1.2 72 1.9 NW 22 33 12 18 1010.5 1011.6 0.0
24/05:30pm 6.1 -0.7 0.9 69 2.1 NW 26 35 14 19 1010.3 1011.4 0.0
24/05:00pm 6.5 0.4 0.4 65 2.5 NW 22 32 12 17 1010.4 1011.5 0.0
24/04:30pm 6.7 -0.2 0.4 64 2.6 NW 26 33 14 18 1010.3 1011.4 0.0
24/04:00pm 7.0 -0.2 0.9 65 2.5 NW 28 37 15 20 1010.7 1011.7 0.0
24/03:30pm 7.2 0.0 0.6 63 2.7 NW 28 37 15 20 1010.5 1011.6 0.0
24/03:00pm 7.6 1.4 -0.1 58 3.1 NNW 22 32 12 17 1010.3 1011.4 0.0
24/02:30pm 7.6 1.9 -0.6 56 3.3 NW 19 28 10 15 1010.8 1011.9 0.0
24/02:00pm 6.6 0.7 -1.1 58 3.0 WNW 20 28 11 15 1011.5 1012.6 0.0
24/01:30pm 6.7 -0.6 0.2 63 2.6 NW 28 37 15 20 1012.0 1013.1 0.0
24/01:00pm 6.1 0.0 0.6 68 2.2 NW 22 30 12 16 1012.2 1013.4 0.0
24/12:30pm 6.2 -0.4 -0.1 64 2.5 NW 24 32 13 17 1013.0 1014.1 0.0
24/12:00pm 6.4 1.2 0.3 65 2.5 WNW 17 28 9 15 1013.6 1014.7 0.0
24/11:30am 6.7 1.9 -0.1 62 2.7 NW 15 22 8 12 1014.0 1015.2 0.0
24/11:00am 6.4 1.1 -0.3 62 2.7 W 17 24 9 13 1014.6 1015.7 0.0
24/10:30am 5.9 0.9 -1.0 61 2.7 WNW 15 22 8 12 1014.7 1015.8 0.0
24/10:00am 6.5 1.9 -0.9 59 2.9 WNW 13 19 7 10 1014.9 1016.0 0.0
24/09:30am 4.6 0.9 -0.2 71 1.9 NNW 9 13 5 7 1015.0 1016.1 0.0
24/09:00am 3.8 1.8 -0.4 74 1.6 CALM 0 6 0 3 1015.1 1016.2 0.2
24/08:30am 3.0 0.9 -0.5 78 1.3 CALM 0 0 0 0 1015.2 1016.4 0.2
24/08:00am 0.6 -2.9 -1.3 87 0.7 ESE 7 9 4 5 1014.8 1015.9 0.2
24/07:30am -2.1 -5.9 -3.7 89 0.4 SSE 7 9 4 5 1014.0 1015.2 0.2
24/07:00am -1.7 -5.9 -3.6 87 0.6 ENE 9 11 5 6 1013.7 1014.9 0.2
24/06:30am 0.4 -4.0 -2.5 81 1.0 N 11 15 6 8 1013.2 1014.3 0.2
24/06:00am 1.1 -3.6 -2.0 80 1.2 N 13 19 7 10 1012.6 1013.7 0.2
24/05:30am 1.3 -4.5 -1.4 82 1.0 NNW 19 24 10 13 1012.9 1014.0 0.2
24/05:00am 1.4 -4.0 -1.7 80 1.1 N 17 22 9 12 1012.8 1013.9 0.2
24/04:30am 1.3 -4.1 -1.6 81 1.1 NNW 17 19 9 10 1012.5 1013.6 0.2
24/04:00am 1.6 -3.4 -1.5 80 1.1 NNW 15 17 8 9 1012.7 1013.8 0.2
24/03:30am 1.5 -3.2 -1.6 80 1.1 N 13 15 7 8 1012.5 1013.6 0.2
24/03:00am 1.8 -3.6 -1.4 79 1.2 NNW 17 22 9 12 1012.1 1013.2 0.2
24/02:30am 1.9 -3.6 -1.9 76 1.4 NW 17 22 9 12 1012.2 1013.4 0.2
24/02:00am 2.2 -3.3 -1.8 75 1.5 NW 17 22 9 12 1012.6 1013.7 0.2
24/01:30am 3.4 -1.7 -1.9 68 2.0 N 15 20 8 11 1012.6 1013.7 0.2
24/01:00am 3.8 -2.1 -2.0 66 2.2 WNW 19 30 10 16 1012.5 1013.6 0.2
24/12:30am 4.5 -1.5 -1.9 63 2.4 WNW 20 26 11 14 1012.3 1013.5 0.2
24/12:00am 4.8 -0.7 -2.1 61 2.6 NNW 17 24 9 13 1012.6 1013.7 0.2
 
Date/Time
EST
Temp
°C
App
Temp
°C
Dew
Point
°C
Rel
Hum
%
Delta-T
°C
Wind Press
QNH
hPa
Press
MSL
hPa
Rain since
9am
mm
Dir  Spd
km/h
Gust
km/h
Spd
kts
Gust
kts
23/11:30pm 4.6 -0.1 -2.0 62 2.5 NNW 13 15 7 8 1012.7 1013.8 0.2
23/11:00pm 4.4 -1.1 -2.2 62 2.5 WNW 17 28 9 15 1012.0 1013.1 0.2
23/10:30pm 4.9 -1.0 -2.4 59 2.7 WNW 19 28 10 15 1012.2 1013.4 0.2
23/10:00pm 4.8 -2.5 -2.5 59 2.7 W 26 35 14 19 1011.9 1013.0 0.2
23/09:30pm 4.7 -1.7 -1.9 62 2.5 WNW 22 32 12 17 1011.6 1012.7 0.2
23/09:00pm 5.0 -1.4 -1.9 61 2.6 W 22 35 12 19 1011.5 1012.6 0.2
23/08:30pm 5.0 -1.7 -1.4 63 2.4 W 24 37 13 20 1011.2 1012.3 0.2
23/08:00pm 5.1 -3.1 -0.7 66 2.3 WNW 32 41 17 22 1010.8 1011.9 0.2
23/07:30pm 5.4 -3.1 -1.5 61 2.6 WNW 33 50 18 27 1010.4 1011.5 0.2
23/07:28pm 5.4 -2.8 -1.3 62 2.6 W 32 50 17 27 1010.4 1011.5 0.2
23/07:00pm 5.3 -3.0 -1.8 60 2.7 WNW 32 44 17 24 1010.1 1011.2 0.2
23/06:30pm 5.6 -2.3 -1.8 59 2.8 WNW 30 39 16 21 1009.8 1010.9 0.2
23/06:12pm 6.3 -1.2 -1.6 57 3.0 W 28 48 15 26 1009.6 1010.7 0.2
23/06:00pm 6.2 0.2 -1.7 57 3.0 WNW 20 30 11 16 1009.2 1010.2 0.2
23/05:30pm 6.4 -1.6 -2.2 54 3.3 WNW 30 44 16 24 1008.5 1009.6 0.2
23/05:00pm 6.4 -2.2 -2.2 54 3.3 W 33 48 18 26 1008.0 1009.1 0.2
23/04:44pm 7.1 -0.6 -2.6 50 3.7 W 28 46 15 25 1007.8 1008.8 0.2
23/04:30pm 7.5 -0.5 -2.2 50 3.7 W 30 43 16 23 1007.6 1008.6 0.2
23/04:00pm 7.6 2.1 -1.9 51 3.7 NW 17 30 9 16 1007.4 1008.4 0.2
23/03:30pm 7.2 1.2 -1.7 53 3.5 NW 20 43 11 23 1007.0 1008.0 0.2
23/03:00pm 8.0 2.5 0.3 58 3.2 NNW 19 28 10 15 1006.2 1007.2 0.2
23/02:45pm 9.9 3.3 -0.3 49 4.2 NW 24 54 13 29 1005.9 1006.9 0.2
23/02:30pm 9.6 3.4 -0.3 50 4.1 NW 22 37 12 20 1005.5 1006.5 0.2
23/02:00pm 8.5 0.0 1.0 59 3.2 WNW 35 61 19 33 1004.9 1006.0 0.2
23/01:30pm 8.2 -0.7 0.9 60 3.1 WNW 37 59 20 32 1004.5 1005.5 0.2
23/01:00pm 8.7 -1.0 0.4 56 3.5 WNW 41 69 22 37 1004.0 1005.0 0.2
23/12:30pm 9.1 1.1 1.8 60 3.1 WNW 33 52 18 28 1003.8 1004.8 0.2
23/12:00pm 10.0 2.8 3.1 62 3.1 WNW 30 48 16 26 1003.6 1004.6 0.2
23/11:30am 8.8 0.3 3.2 68 2.5 NW 37 57 20 31 1003.3 1004.2 0.2
23/11:09am 8.4 0.2 2.8 68 2.5 WNW 35 54 19 29 1003.5 1004.5 0.2
23/11:00am 8.7 -0.2 3.1 68 2.5 NW 39 52 21 28 1003.4 1004.3 0.2
23/10:30am 8.8 0.3 3.4 69 2.4 NW 37 56 20 30 1002.9 1003.9 0.2
23/10:24am 7.8 -0.7 2.9 71 2.1 NW 37 56 20 30 1002.8 1003.8 0.2
23/10:00am 7.4 -0.7 3.5 76 1.7 NW 35 48 19 26 1002.6 1003.6 0.2
23/09:30am 7.1 -0.7 3.0 75 1.8 WNW 33 48 18 26 1002.1 1003.1 0.0
23/09:02am 7.1 -1.4 3.2 76 1.7 NW 37 56 20 30 1001.6 1002.5 0.0
23/09:00am 6.9 -1.2 3.2 77 1.6 NW 35 50 19 27 1001.6 1002.5 3.6
23/08:30am 6.2 -2.7 2.8 79 1.5 WNW 39 57 21 31 1001.3 1002.3 3.6
23/08:08am 6.0 -1.9 2.3 77 1.6 NW 33 54 18 29 1001.3 1002.3 3.6
23/08:00am 5.7 -2.2 2.4 79 1.4 NW 33 43 18 23 1001.5 1002.4 3.6
23/07:30am 4.9 -3.8 1.7 80 1.3 NW 37 57 20 31 1001.1 1002.1 3.6
23/07:21am 5.2 -3.5 1.7 78 1.4 WNW 37 57 20 31 1000.9 1001.9 3.6
23/07:00am 5.2 -3.1 2.4 82 1.2 NW 35 52 19 28 1000.6 1001.6 3.6
23/06:32am 5.6 -2.7 1.9 77 1.5 WNW 35 54 19 29 1000.3 1001.2 3.6
23/06:30am 5.7 -3.0 2.0 77 1.5 WNW 37 54 20 29 1000.3 1001.2 3.6
23/06:01am 5.5 -2.8 2.0 78 1.5 WNW 35 54 19 29 999.7 1000.6 3.6
23/06:00am 5.7 -3.0 1.8 76 1.6 WNW 37 54 20 29 999.7 1000.6 3.6
23/05:30am 6.2 -1.8 1.7 73 1.9 WNW 33 57 18 31 999.0 999.9 3.6
23/05:00am 7.0 -2.4 2.1 71 2.1 WNW 41 59 22 32 998.6 999.5 3.6
23/04:31am 7.5 -2.1 1.1 64 2.7 WNW 41 59 22 32 998.0 998.9 3.6
23/04:30am 7.5 -2.1 1.4 65 2.6 WNW 41 61 22 33 998.0 998.9 3.6
23/04:00am 7.6 -1.4 2.7 71 2.1 WNW 39 72 21 39 997.5 998.4 3.6
23/03:57am 7.8 0.0 3.1 72 2.1 W 33 52 18 28 997.5 998.4 3.6
23/03:30am 8.6 -0.3 2.8 67 2.5 WNW 39 52 21 28 997.3 998.2 3.6
23/03:00am 9.2 1.1 3.2 66 2.7 WNW 35 59 19 32 997.3 998.2 3.6
23/02:35am 9.2 0.9 4.0 70 2.4 WNW 37 56 20 30 997.6 998.6 3.6
23/02:30am 9.0 0.7 4.2 72 2.2 WNW 37 52 20 28 997.6 998.6 3.6
23/02:00am 8.6 0.5 5.2 79 1.6 WNW 37 56 20 30 998.0 998.9 3.6
23/01:30am 9.0 0.6 5.6 79 1.6 W 39 57 21 31 998.3 999.2 3.6
23/01:28am 9.2 0.7 5.2 76 1.9 W 39 57 21 31 998.3 999.2 3.6
23/01:17am 9.8 1.8 5.6 75 2.0 W 37 57 20 31 998.3 999.2 3.6
23/01:06am 10.3 2.0 6.3 76 1.9 WNW 39 76 21 41 997.9 998.8 3.6
23/01:00am 10.3 2.2 7.2 81 1.5 WNW 39 57 21 31 997.6 998.6 3.4
23/12:30am 11.5 3.0 5.2 65 3.0 WNW 39 63 21 34 997.4 998.3 3.4
23/12:16am 11.5 4.3 4.9 64 3.1 WNW 32 56 17 30 997.5 998.4 3.4
23/12:00am 11.5 4.0 4.5 62 3.3 WNW 33 44 18 24 998.0 998.9 3.4
 
Date/Time
EST
Temp
°C
App
Temp
°C
Dew
Point
°C
Rel
Hum
%
Delta-T
°C
Wind Press
QNH
hPa
Press
MSL
hPa
Rain since
9am
mm
Dir  Spd
km/h
Gust
km/h
Spd
kts
Gust
kts
22/11:30pm 11.6 3.4 4.6 62 3.3 W 37 61 20 33 998.3 999.2 3.4
22/11:11pm 11.8 3.6 5.0 63 3.2 W 37 59 20 32 998.4 999.3 3.4
22/11:00pm 11.8 3.4 5.4 65 3.1 W 39 52 21 28 998.6 999.5 3.4
22/10:30pm 12.3 2.5 5.5 63 3.3 W 46 70 25 38 998.6 999.5 3.4
22/10:00pm 13.1 5.3 6.5 64 3.3 WNW 37 67 20 36 998.4 999.3 3.4
22/09:31pm 13.4 6.2 7.8 69 2.8 W 35 56 19 30 998.3 999.2 3.4
22/09:30pm 13.5 6.3 7.7 68 2.9 W 35 50 19 27 998.3 999.2 3.4
22/09:00pm 13.8 8.4 9.5 75 2.3 W 28 50 15 27 998.2 999.1 3.4
22/08:40pm 14.6 9.3 10.0 74 2.5 W 28 48 15 26 998.6 999.5 3.4
22/08:30pm 15.1 10.4 10.5 74 2.5 WNW 26 39 14 21 998.3 999.2 3.4
22/08:00pm 16.0 10.1 11.0 72 2.8 NW 33 48 18 26 998.2 999.1 3.4
22/07:35pm 16.3 8.8 11.0 71 2.9 WNW 41 59 22 32 998.2 999.1 3.4
22/07:30pm 16.4 9.3 10.9 70 3.0 WNW 39 54 21 29 998.1 999.0 3.4
22/07:00pm 16.0 10.4 11.6 75 2.5 WNW 32 52 17 28 997.9 998.8 3.4
22/06:30pm 16.1 10.7 12.1 77 2.2 NW 32 46 17 25 997.6 998.6 3.2
22/06:00pm 16.0 10.7 12.4 79 2.0 WNW 32 59 17 32 998.1 999.0 3.2
22/05:35pm 16.1 12.4 12.8 81 1.9 WNW 24 54 13 29 997.8 998.7 3.2
22/05:30pm 15.5 13.1 13.9 90 0.9 W 19 28 10 15 998.0 998.9 3.2
22/05:00pm 15.7 11.3 15.1 96 0.4 NW 32 41 17 22 997.3 998.2 2.6
22/04:30pm 15.6 9.7 14.8 95 0.5 NW 39 50 21 27 997.5 998.4 2.2
22/04:14pm 15.9 9.5 14.4 91 0.9 NW 41 59 22 32 997.3 998.2 2.0
22/04:13pm 15.9 9.1 14.3 90 0.9 NW 43 59 23 32 997.4 998.3 2.0

Latest Capital City Observations: Canberra | Sydney | Melbourne | Brisbane | Adelaide | Perth | Hobart | Darwin

Other Formats:

Comma delimited format used in spreadsheet applications
http://www.bom.gov.au/fwo/IDN60903/IDN60903.94926.axf

JavaScript Object Notation format (JSON) in row-major order
http://www.bom.gov.au/fwo/IDN60903/IDN60903.94926.json